createdAt,value
2022-11-05T00:00:16.975Z,12.50
2022-11-05T00:03:03.860Z,12.50
2022-11-05T00:05:50.672Z,12.50
2022-11-05T00:08:36.164Z,12.50
2022-11-05T00:11:04.603Z,12.40
2022-11-05T00:13:50.228Z,12.40
2022-11-05T00:16:35.089Z,12.40
2022-11-05T00:19:10.635Z,12.40
2022-11-05T00:21:57.558Z,12.40
2022-11-05T00:24:44.122Z,12.30
2022-11-05T00:27:12.867Z,12.30
2022-11-05T00:29:41.224Z,12.30
2022-11-05T00:32:09.619Z,12.30
2022-11-05T00:34:39.336Z,12.30
2022-11-05T00:37:07.621Z,12.30
2022-11-05T00:39:36.307Z,12.30
2022-11-05T00:42:22.023Z,12.30
2022-11-05T00:45:02.486Z,12.20
2022-11-05T00:47:48.511Z,12.20
2022-11-05T00:50:18.409Z,12.20
2022-11-05T00:53:00.485Z,12.10
2022-11-05T00:55:34.792Z,12.10
2022-11-05T00:58:04.383Z,12.10
2022-11-05T01:00:34.220Z,12.10
2022-11-05T01:03:04.802Z,12.10
2022-11-05T01:05:36.183Z,12.10
2022-11-05T01:08:04.574Z,12.20
2022-11-05T01:10:33.473Z,12.10
2022-11-05T01:13:01.885Z,12.10
2022-11-05T01:15:30.307Z,12.10
2022-11-05T01:17:58.655Z,12.10
2022-11-05T01:20:27.901Z,12.10
2022-11-05T01:22:57.599Z,12.20
2022-11-05T01:25:26.247Z,12.20
2022-11-05T01:27:54.584Z,12.20
2022-11-05T01:30:23.280Z,12.20
2022-11-05T01:32:51.791Z,12.20
2022-11-05T01:35:20.532Z,12.10
2022-11-05T01:37:49.264Z,12.20
2022-11-05T01:40:21.482Z,12.20
2022-11-05T01:42:50.204Z,12.20
2022-11-05T01:45:20.789Z,12.20
2022-11-05T01:47:58.008Z,12.10
2022-11-05T01:50:33.818Z,12.10
2022-11-05T01:53:07.012Z,12.10
2022-11-05T01:55:42.373Z,12.10
2022-11-05T01:58:14.764Z,12.10
2022-11-05T02:00:44.317Z,12.10
2022-11-05T02:03:14.379Z,12.10
2022-11-05T02:05:43.118Z,12.10
2022-11-05T02:08:17.949Z,12.00
2022-11-05T02:10:48.483Z,12.00
2022-11-05T02:13:16.848Z,12.00
2022-11-05T02:15:57.201Z,11.90
2022-11-05T02:18:38.663Z,12.00
2022-11-05T02:21:31.092Z,12.00
2022-11-05T02:24:26.358Z,12.00
2022-11-05T02:27:14.191Z,12.00
2022-11-05T02:30:05.407Z,11.90
2022-11-05T02:32:56.268Z,11.90
2022-11-05T02:35:43.595Z,11.90
2022-11-05T02:38:27.523Z,11.90
2022-11-05T02:41:06.480Z,11.80
2022-11-05T02:43:44.147Z,11.80
2022-11-05T02:46:21.203Z,11.80
2022-11-05T02:48:59.511Z,11.80
2022-11-05T02:51:35.109Z,11.80
2022-11-05T02:54:10.775Z,11.80
2022-11-05T02:56:43.141Z,11.80
2022-11-05T02:59:11.582Z,11.70
2022-11-05T03:01:43.007Z,11.70
2022-11-05T03:04:15.495Z,11.70
2022-11-05T03:06:55.257Z,11.70
2022-11-05T03:09:43.288Z,11.60
2022-11-05T03:12:31.031Z,11.60
2022-11-05T03:15:09.046Z,11.50
2022-11-05T03:17:45.226Z,11.50
2022-11-05T03:20:21.104Z,11.50
2022-11-05T03:22:55.839Z,11.50
2022-11-05T03:25:27.005Z,11.50
2022-11-05T03:28:00.097Z,11.40
2022-11-05T03:30:28.419Z,11.40
2022-11-05T03:33:01.978Z,11.50
2022-11-05T03:35:36.503Z,11.40
2022-11-05T03:38:11.837Z,11.50
2022-11-05T03:40:42.331Z,11.50
2022-11-05T03:43:11.152Z,11.50
2022-11-05T03:45:45.109Z,11.50
2022-11-05T03:48:16.014Z,11.50
2022-11-05T03:50:52.612Z,11.50
2022-11-05T03:53:26.407Z,11.50
2022-11-05T03:56:09.136Z,11.50
2022-11-05T03:58:38.846Z,11.40
2022-11-05T04:01:07.307Z,11.40
2022-11-05T04:03:37.552Z,11.40
2022-11-05T04:06:27.041Z,11.40
2022-11-05T04:09:13.130Z,11.40
2022-11-05T04:11:58.898Z,11.40
2022-11-05T04:14:27.586Z,11.40
2022-11-05T04:17:08.873Z,11.40
2022-11-05T04:19:54.446Z,11.30
2022-11-05T04:22:42.210Z,11.30
2022-11-05T04:25:10.712Z,11.30
2022-11-05T04:27:39.138Z,11.30
2022-11-05T04:30:20.070Z,11.30
2022-11-05T04:32:59.812Z,11.30
2022-11-05T04:35:28.575Z,11.30
2022-11-05T04:37:58.447Z,11.20
2022-11-05T04:40:27.169Z,11.30
2022-11-05T04:42:56.665Z,11.20
2022-11-05T04:45:25.867Z,11.20
2022-11-05T04:47:54.611Z,11.20
2022-11-05T04:50:23.136Z,11.20
2022-11-05T04:52:51.356Z,11.30
2022-11-05T04:55:21.342Z,11.20
2022-11-05T04:57:50.795Z,11.20
2022-11-05T05:00:20.042Z,11.20
2022-11-05T05:02:48.949Z,11.20
2022-11-05T05:05:17.551Z,11.20
2022-11-05T05:07:45.964Z,11.20
2022-11-05T05:10:14.794Z,11.20
2022-11-05T05:12:44.673Z,11.20
2022-11-05T05:15:13.031Z,11.20
2022-11-05T05:17:41.342Z,11.10
2022-11-05T05:20:27.347Z,11.10
2022-11-05T05:22:56.663Z,11.10
2022-11-05T05:25:25.147Z,11.10
2022-11-05T05:27:57.551Z,11.10
2022-11-05T05:30:26.304Z,11.00
2022-11-05T05:32:54.674Z,11.00
2022-11-05T05:35:23.229Z,11.00
2022-11-05T05:37:56.406Z,10.90
2022-11-05T05:40:25.131Z,10.90
2022-11-05T05:42:56.869Z,10.90
2022-11-05T05:45:25.280Z,10.90
2022-11-05T05:47:55.932Z,10.90
2022-11-05T05:50:24.319Z,10.90
2022-11-05T05:52:52.659Z,10.90
2022-11-05T05:55:21.099Z,10.90
2022-11-05T05:57:49.559Z,10.90
2022-11-05T06:00:19.521Z,10.80
2022-11-05T06:02:48.020Z,10.80
2022-11-05T06:05:16.750Z,10.80
2022-11-05T06:07:45.129Z,10.80
2022-11-05T06:10:13.724Z,10.80
2022-11-05T06:12:42.050Z,10.80
2022-11-05T06:15:12.125Z,10.70
2022-11-05T06:17:44.159Z,10.70
2022-11-05T06:20:13.866Z,10.70
2022-11-05T06:22:42.350Z,10.70
2022-11-05T06:25:11.441Z,10.70
2022-11-05T06:27:40.368Z,10.80
2022-11-05T06:30:10.417Z,10.80
2022-11-05T06:32:38.904Z,10.80
2022-11-05T06:35:09.430Z,10.80
2022-11-05T06:37:37.784Z,10.80
2022-11-05T06:40:07.236Z,10.80
2022-11-05T06:42:35.983Z,10.80
2022-11-05T06:45:05.203Z,10.90
2022-11-05T06:47:33.462Z,10.90
2022-11-05T06:50:02.046Z,10.90
2022-11-05T06:52:33.959Z,10.90
2022-11-05T06:55:06.394Z,11.00
2022-11-05T06:57:34.687Z,11.00
2022-11-05T07:00:07.593Z,11.00
2022-11-05T07:02:37.139Z,11.00
2022-11-05T07:05:07.361Z,11.00
2022-11-05T07:07:37.326Z,11.00
2022-11-05T07:10:06.143Z,11.10
2022-11-05T07:12:34.478Z,11.10
2022-11-05T07:15:02.899Z,11.10
2022-11-05T07:17:31.842Z,11.20
2022-11-05T07:20:00.465Z,11.20
2022-11-05T07:22:28.982Z,11.20
2022-11-05T07:24:58.780Z,11.20
2022-11-05T07:27:27.595Z,11.20
2022-11-05T07:29:56.052Z,11.20
2022-11-05T07:32:24.762Z,11.20
2022-11-05T07:34:53.415Z,11.20
2022-11-05T07:37:21.696Z,11.10
2022-11-05T07:39:50.068Z,11.10
2022-11-05T07:42:19.837Z,11.00
2022-11-05T07:44:48.587Z,11.00
2022-11-05T07:47:17.013Z,11.00
2022-11-05T07:49:45.723Z,11.00
2022-11-05T07:52:14.157Z,11.00
2022-11-05T07:54:42.772Z,11.00
2022-11-05T07:57:11.237Z,11.00
2022-11-05T07:59:41.310Z,11.00
2022-11-05T08:02:12.127Z,11.00
2022-11-05T08:04:42.707Z,11.00
2022-11-05T08:07:11.229Z,11.00
2022-11-05T08:09:39.920Z,11.00
2022-11-05T08:12:09.020Z,11.00
2022-11-05T08:14:37.883Z,11.00
2022-11-05T08:17:07.641Z,11.00
2022-11-05T08:19:36.037Z,11.00
2022-11-05T08:22:04.404Z,11.00
2022-11-05T08:24:32.619Z,10.90
2022-11-05T08:27:00.980Z,10.90
2022-11-05T08:29:29.405Z,10.90
2022-11-05T08:31:59.120Z,10.90
2022-11-05T08:34:29.075Z,10.90
2022-11-05T08:36:57.370Z,10.90
2022-11-05T08:39:25.830Z,11.00
2022-11-05T08:41:54.445Z,11.00
2022-11-05T08:44:22.826Z,11.00
2022-11-05T08:46:51.214Z,11.00
2022-11-05T08:49:19.575Z,11.00
2022-11-05T08:51:49.878Z,11.00
2022-11-05T08:54:18.182Z,11.10
2022-11-05T08:56:46.888Z,11.10
2022-11-05T08:59:15.266Z,11.10
2022-11-05T09:01:44.134Z,11.20
2022-11-05T09:04:12.590Z,11.20
2022-11-05T09:06:40.928Z,11.30
2022-11-05T09:09:10.938Z,11.30
2022-11-05T09:12:09.817Z,11.30
2022-11-05T09:14:27.935Z,11.40
2022-11-05T09:16:56.232Z,11.40
2022-11-05T09:19:24.684Z,11.40
2022-11-05T09:21:53.200Z,11.40
2022-11-05T09:24:24.982Z,11.40
2022-11-05T09:26:53.303Z,11.40
2022-11-05T09:29:21.792Z,11.40
2022-11-05T09:31:50.186Z,11.40
2022-11-05T09:34:18.748Z,11.40
2022-11-05T09:36:47.363Z,11.50
2022-11-05T09:39:15.981Z,11.50
2022-11-05T09:41:47.279Z,11.60
2022-11-05T09:44:19.734Z,11.60
2022-11-05T09:46:51.375Z,11.60
2022-11-05T09:49:27.640Z,11.60
2022-11-05T09:51:57.573Z,11.60
2022-11-05T09:54:33.364Z,11.70
2022-11-05T09:57:04.328Z,11.70
2022-11-05T09:59:38.553Z,11.70
2022-11-05T10:02:17.994Z,11.70
2022-11-05T10:04:49.534Z,11.80
2022-11-05T10:07:21.342Z,11.80
2022-11-05T10:09:56.718Z,11.80
2022-11-05T10:12:32.226Z,11.90
2022-11-05T10:15:10.921Z,11.90
2022-11-05T10:17:42.293Z,11.90
2022-11-05T10:20:20.557Z,11.90
2022-11-05T10:22:51.254Z,11.90
2022-11-05T10:25:22.354Z,11.90
2022-11-05T10:27:56.624Z,11.90
2022-11-05T10:30:27.918Z,12.00
2022-11-05T10:32:59.035Z,12.00
2022-11-05T10:35:34.681Z,12.00
2022-11-05T10:38:04.037Z,12.00
2022-11-05T10:40:39.900Z,12.00
2022-11-05T10:43:16.822Z,12.00
2022-11-05T10:45:52.243Z,12.10
2022-11-05T10:48:44.331Z,12.10
2022-11-05T10:51:14.930Z,12.20
2022-11-05T10:53:55.968Z,12.20
2022-11-05T10:56:36.027Z,12.20
2022-11-05T10:59:20.099Z,12.30
2022-11-05T11:01:48.570Z,12.30
2022-11-05T11:04:21.942Z,12.30
2022-11-05T11:06:53.103Z,12.30
2022-11-05T11:09:25.935Z,12.30
2022-11-05T11:12:03.164Z,12.30
2022-11-05T11:14:35.276Z,12.30
2022-11-05T11:17:31.060Z,12.40
2022-11-05T11:20:26.082Z,12.40
2022-11-05T11:23:13.121Z,12.50
2022-11-05T11:25:52.954Z,12.50
2022-11-05T11:28:25.614Z,12.50
2022-11-05T11:31:03.590Z,12.50
2022-11-05T11:33:37.652Z,12.60
2022-11-05T11:36:07.852Z,12.60
2022-11-05T11:38:37.812Z,12.60
2022-11-05T11:41:21.194Z,12.60
2022-11-05T11:43:50.450Z,12.60
2022-11-05T11:46:22.741Z,12.60
2022-11-05T11:48:53.178Z,12.60
2022-11-05T11:51:32.605Z,12.70
2022-11-05T11:54:08.043Z,12.80
2022-11-05T11:56:45.943Z,12.80
2022-11-05T11:59:40.575Z,12.90
2022-11-05T12:02:46.636Z,13.00
2022-11-05T12:05:26.166Z,13.00
2022-11-05T12:08:00.137Z,13.10
2022-11-05T12:10:52.274Z,13.20
2022-11-05T12:13:54.484Z,13.20
2022-11-05T12:16:53.865Z,13.30
2022-11-05T12:19:49.102Z,13.30
2022-11-05T12:22:37.941Z,13.30
2022-11-05T12:25:20.728Z,13.40
2022-11-05T12:28:05.559Z,13.40
2022-11-05T12:30:44.514Z,13.50
2022-11-05T12:33:26.160Z,13.60
2022-11-05T12:36:09.090Z,13.70
2022-11-05T12:38:58.621Z,13.70
2022-11-05T12:41:33.012Z,13.60
2022-11-05T12:44:29.485Z,13.70
2022-11-05T12:47:16.751Z,13.60
2022-11-05T12:50:11.335Z,13.50
2022-11-05T12:53:00.841Z,13.40
2022-11-05T12:55:47.114Z,13.40
2022-11-05T12:58:27.002Z,13.30
2022-11-05T13:01:01.483Z,13.20
2022-11-05T13:03:41.121Z,13.20
2022-11-05T13:06:22.187Z,13.20
2022-11-05T13:09:03.973Z,13.20
2022-11-05T13:11:40.393Z,13.20
2022-11-05T13:14:17.592Z,13.20
2022-11-05T13:16:49.671Z,13.30
2022-11-05T13:19:23.604Z,13.20
2022-11-05T13:21:55.907Z,13.30
2022-11-05T13:24:29.765Z,13.30
2022-11-05T13:27:05.031Z,13.30
2022-11-05T13:29:36.684Z,13.40
2022-11-05T13:32:13.455Z,13.60
2022-11-05T13:34:42.115Z,13.70
2022-11-05T13:37:30.137Z,14.00
2022-11-05T13:40:03.708Z,14.10
2022-11-05T13:43:01.722Z,14.20
2022-11-05T13:45:48.151Z,14.30
2022-11-05T13:48:46.059Z,14.30
2022-11-05T13:51:38.688Z,14.40
2022-11-05T13:54:37.548Z,14.40
2022-11-05T13:57:27.813Z,14.40
2022-11-05T14:00:05.216Z,14.30
2022-11-05T14:02:40.181Z,14.20
2022-11-05T14:05:09.460Z,14.10
2022-11-05T14:07:41.095Z,14.00
2022-11-05T14:10:19.255Z,13.90
2022-11-05T14:12:52.713Z,13.80
2022-11-05T14:15:24.670Z,13.70
2022-11-05T14:17:58.861Z,13.60
2022-11-05T14:20:47.779Z,13.60
2022-11-05T14:23:42.084Z,13.50
2022-11-05T14:26:16.914Z,13.50
2022-11-05T14:28:50.177Z,13.40
2022-11-05T14:32:02.851Z,13.30
2022-11-05T14:34:42.079Z,13.30
2022-11-05T14:37:25.527Z,13.20
2022-11-05T14:39:55.461Z,13.10
2022-11-05T14:42:29.618Z,13.10
2022-11-05T14:45:22.441Z,13.10
2022-11-05T14:47:56.492Z,13.00
2022-11-05T14:50:32.399Z,13.00
2022-11-05T14:53:10.828Z,13.00
2022-11-05T14:55:43.119Z,13.00
2022-11-05T14:58:31.791Z,12.90
2022-11-05T15:01:03.865Z,12.90
2022-11-05T15:04:04.121Z,12.90
2022-11-05T15:06:35.349Z,12.80
2022-11-05T15:09:30.560Z,12.80
2022-11-05T15:12:13.255Z,12.80
2022-11-05T15:14:49.400Z,12.70
2022-11-05T15:17:26.665Z,12.70
2022-11-05T15:19:55.715Z,12.70
2022-11-05T15:22:31.437Z,12.70
2022-11-05T15:25:01.098Z,12.60
2022-11-05T15:27:47.824Z,12.60
2022-11-05T15:30:19.067Z,12.60
2022-11-05T15:32:49.345Z,12.50
2022-11-05T15:35:26.904Z,12.40
2022-11-05T15:38:02.149Z,12.40
2022-11-05T15:40:37.943Z,12.40
2022-11-05T15:43:11.240Z,12.30
2022-11-05T15:45:40.266Z,12.30
2022-11-05T15:48:19.527Z,12.30
2022-11-05T15:50:47.949Z,12.30
2022-11-05T15:53:44.102Z,12.20
2022-11-05T15:56:13.293Z,12.20
2022-11-05T15:58:48.575Z,12.10
2022-11-05T16:01:22.968Z,12.10
2022-11-05T16:03:54.121Z,12.10
2022-11-05T16:06:23.782Z,12.00
2022-11-05T16:08:52.471Z,12.00
2022-11-05T16:11:24.604Z,12.00
2022-11-05T16:13:53.431Z,12.00
2022-11-05T16:16:32.822Z,11.90
2022-11-05T16:19:02.756Z,11.90
2022-11-05T16:21:31.125Z,11.90
2022-11-05T16:24:01.202Z,11.90
2022-11-05T16:27:02.346Z,11.80
2022-11-05T16:29:29.111Z,11.80
2022-11-05T16:31:59.067Z,11.80
2022-11-05T16:34:38.182Z,11.70
2022-11-05T16:37:08.263Z,11.70
2022-11-05T16:39:36.677Z,11.70
2022-11-05T16:42:32.824Z,11.70
2022-11-05T16:45:01.184Z,11.60
2022-11-05T16:47:31.320Z,11.60
2022-11-05T16:50:01.256Z,11.60
2022-11-05T16:52:29.793Z,11.60
2022-11-05T16:54:58.074Z,11.50
2022-11-05T16:57:28.522Z,11.50
2022-11-05T16:59:57.333Z,11.50
2022-11-05T17:02:26.084Z,11.50
2022-11-05T17:04:54.757Z,11.50
2022-11-05T17:07:24.708Z,11.40
2022-11-05T17:09:53.053Z,11.40
2022-11-05T17:12:21.509Z,11.40
2022-11-05T17:14:49.956Z,11.40
2022-11-05T17:17:18.236Z,11.40
2022-11-05T17:19:47.112Z,11.40
2022-11-05T17:22:15.396Z,11.40
2022-11-05T17:24:45.224Z,11.40
2022-11-05T17:27:13.717Z,11.40
2022-11-05T17:29:42.224Z,11.40
2022-11-05T17:32:10.531Z,11.40
2022-11-05T17:34:40.387Z,11.40
2022-11-05T17:37:08.834Z,11.40
2022-11-05T17:39:37.252Z,11.40
2022-11-05T17:42:07.150Z,11.40
2022-11-05T17:44:35.810Z,11.40
2022-11-05T17:47:04.188Z,11.40
2022-11-05T17:49:32.608Z,11.30
2022-11-05T17:52:01.509Z,11.30
2022-11-05T17:54:29.792Z,11.30
2022-11-05T17:56:58.532Z,11.30
2022-11-05T17:59:28.884Z,11.30
2022-11-05T18:01:57.920Z,11.20
2022-11-05T18:04:26.756Z,11.20
2022-11-05T18:06:55.188Z,11.20
2022-11-05T18:09:23.693Z,11.20
2022-11-05T18:11:51.982Z,11.20
2022-11-05T18:14:23.997Z,11.10
2022-11-05T18:16:55.484Z,11.10
2022-11-05T18:19:23.943Z,11.10
2022-11-05T18:21:52.286Z,11.10
2022-11-05T18:24:20.742Z,11.00
2022-11-05T18:26:49.332Z,11.00
2022-11-05T18:29:17.674Z,11.00
2022-11-05T18:31:45.975Z,11.00
2022-11-05T18:34:15.698Z,10.90
2022-11-05T18:36:46.012Z,10.90
2022-11-05T18:39:14.598Z,10.90
2022-11-05T18:41:42.962Z,10.90
2022-11-05T18:44:12.657Z,10.90
2022-11-05T18:46:57.595Z,10.90
2022-11-05T18:49:28.333Z,10.80
2022-11-05T18:51:56.730Z,10.80
2022-11-05T18:54:25.004Z,10.80
2022-11-05T18:56:53.364Z,10.70
2022-11-05T18:59:36.821Z,10.70
2022-11-05T19:02:07.167Z,10.70
2022-11-05T19:04:38.702Z,10.70
2022-11-05T19:07:08.052Z,10.70
2022-11-05T19:09:36.728Z,10.70
2022-11-05T19:12:07.918Z,10.70
2022-11-05T19:14:36.998Z,10.70
2022-11-05T19:17:05.740Z,10.70
2022-11-05T19:19:34.442Z,10.60
2022-11-05T19:22:04.600Z,10.60
2022-11-05T19:24:33.610Z,10.70
2022-11-05T19:27:01.997Z,10.60
2022-11-05T19:29:30.538Z,10.60
2022-11-05T19:31:59.469Z,10.70
2022-11-05T19:34:28.074Z,10.60
2022-11-05T19:36:57.149Z,10.60
2022-11-05T19:39:27.462Z,10.60
2022-11-05T19:42:00.431Z,10.50
2022-11-05T19:44:31.906Z,10.50
2022-11-05T19:47:00.527Z,10.50
2022-11-05T19:49:29.448Z,10.40
2022-11-05T19:51:59.003Z,10.40
2022-11-05T19:54:28.769Z,10.40
2022-11-05T19:56:57.491Z,10.40
2022-11-05T19:59:26.391Z,10.30
2022-11-05T20:01:55.014Z,10.30
2022-11-05T20:04:23.413Z,10.30
2022-11-05T20:06:52.055Z,10.30
2022-11-05T20:09:22.596Z,10.20
2022-11-05T20:11:54.945Z,10.20
2022-11-05T20:14:24.444Z,10.10
2022-11-05T20:16:53.284Z,10.10
2022-11-05T20:19:23.117Z,10.10
2022-11-05T20:21:51.731Z,10.00
2022-11-05T20:24:25.105Z,10.00
2022-11-05T20:26:57.198Z,10.00
2022-11-05T20:29:32.131Z,10.00
2022-11-05T20:32:03.819Z,10.00
2022-11-05T20:34:33.596Z,9.90
2022-11-05T20:37:02.031Z,9.90
2022-11-05T20:39:30.425Z,9.90
2022-11-05T20:42:00.688Z,9.90
2022-11-05T20:44:29.331Z,9.80
2022-11-05T20:46:57.885Z,9.80
2022-11-05T20:49:26.379Z,9.80
2022-11-05T20:51:55.042Z,9.70
2022-11-05T20:54:23.575Z,9.70
2022-11-05T20:56:52.503Z,9.70
2022-11-05T20:59:22.469Z,9.70
2022-11-05T21:01:52.029Z,9.70
2022-11-05T21:04:20.516Z,9.60
2022-11-05T21:06:48.927Z,9.60
2022-11-05T21:09:17.298Z,9.60
2022-11-05T21:12:03.102Z,9.60
2022-11-05T21:14:33.006Z,9.60
2022-11-05T21:17:01.398Z,9.50
2022-11-05T21:19:32.089Z,9.50
2022-11-05T21:22:00.565Z,9.50
2022-11-05T21:24:29.172Z,9.50
2022-11-05T21:26:57.540Z,9.50
2022-11-05T21:29:26.496Z,9.50
2022-11-05T21:31:56.222Z,9.50
2022-11-05T21:34:24.687Z,9.50
2022-11-05T21:36:53.588Z,9.50
2022-11-05T21:39:21.977Z,9.50
2022-11-05T21:41:50.333Z,9.50
2022-11-05T21:44:18.860Z,9.50
2022-11-05T21:46:47.223Z,9.40
2022-11-05T21:49:17.258Z,9.40
2022-11-05T21:52:05.665Z,9.40
2022-11-05T21:54:53.889Z,9.40
2022-11-05T21:57:54.324Z,9.40
2022-11-05T22:00:22.817Z,9.40
2022-11-05T22:02:51.346Z,9.40
2022-11-05T22:05:21.462Z,9.30
2022-11-05T22:07:50.486Z,9.30
2022-11-05T22:10:19.012Z,9.30
2022-11-05T22:12:47.403Z,9.30
2022-11-05T22:15:15.874Z,9.30
2022-11-05T22:17:47.230Z,9.30
2022-11-05T22:20:16.685Z,9.30
2022-11-05T22:22:46.661Z,9.30
2022-11-05T22:25:16.647Z,9.30
2022-11-05T22:27:45.216Z,9.30
2022-11-05T22:30:14.727Z,9.30
2022-11-05T22:32:43.066Z,9.30
2022-11-05T22:35:11.656Z,9.30
2022-11-05T22:37:40.236Z,9.30
2022-11-05T22:40:10.953Z,9.30
2022-11-05T22:42:39.733Z,9.30
2022-11-05T22:45:08.978Z,9.20
2022-11-05T22:47:37.823Z,9.20
2022-11-05T22:50:07.413Z,9.30
2022-11-05T22:52:35.798Z,9.30
2022-11-05T22:55:06.361Z,9.30
2022-11-05T22:57:36.043Z,9.30
2022-11-05T23:00:06.295Z,9.30
2022-11-05T23:02:35.131Z,9.30
2022-11-05T23:05:03.527Z,9.40
2022-11-05T23:07:49.352Z,9.40
2022-11-05T23:10:35.394Z,9.40
2022-11-05T23:13:05.979Z,9.40
2022-11-05T23:15:47.981Z,9.40
2022-11-05T23:18:33.951Z,9.40
2022-11-05T23:21:23.026Z,9.40
2022-11-05T23:24:07.192Z,9.40
2022-11-05T23:26:54.039Z,9.40
2022-11-05T23:29:26.186Z,9.40
2022-11-05T23:32:12.226Z,9.40
2022-11-05T23:34:41.032Z,9.30
2022-11-05T23:37:27.124Z,9.30
2022-11-05T23:39:56.207Z,9.30
2022-11-05T23:42:42.526Z,9.30
2022-11-05T23:45:30.508Z,9.30
2022-11-05T23:48:16.790Z,9.30
2022-11-05T23:50:48.137Z,9.30
2022-11-05T23:53:17.101Z,9.30
2022-11-05T23:55:45.671Z,9.30
2022-11-05T23:58:14.374Z,9.30
